Item Display Status Humidity-temperature Sensor

Elevation Above Sea Level: 3 m

 

Deployed Sensor

  • Serial Number: 20661514
  • NDBC Property Number: 45983
  • Start Date: 6/14/2023 (11:14:09 Z)
  • End Date: Currently Active
Relative Humidity [%]     6 entries per hour
Showing data from 7/18/2024 (19:00:00 Z) to 7/17/2024 (00:00:01 Z)
Previous Next [ Day | 3-Days | 7-Days ]
First Last
Prev [ Day | 3-Days | 7-Days ] Next
First Last

Start Time:     :
End Time:     :     
Time (in GMT) :00 :50 :40 :30 :20 :10
Previous Next [ Day | 3-Days | 7-Days ]
First Last
Prev [ Day | 3-Days | 7-Days ] Next
First Last


123 => good data
MM => data is determined as missing
-- => data not received/configured
Back to Top Back to Top
7/18/2024 19:00 to 18:10 98.43 98.35 98.11 97.87 97.83 97.81
7/18/2024 18:00 to 17:10 97.27 96.73 95.23 94.35 95.21 96.29
7/18/2024 17:00 to 16:10 96.85 96.75 96.75 96.71 96.71 95.79
7/18/2024 16:00 to 15:10 94.57 93.69 92.07 89.41 90.01 88.38
7/18/2024 15:00 to 14:10 88.00 87.54 88.08 88.83 88.99 88.36
7/18/2024 14:00 to 13:10 86.70 86.44 88.60 88.56 89.57 91.83
7/18/2024 13:00 to 12:10 93.77 95.43 96.13 96.57 96.91 97.21
7/18/2024 12:00 to 11:10 96.77 95.89 93.85 93.77 94.91 94.79
7/18/2024 11:00 to 10:10 95.29 94.69 94.39 94.27 94.73 95.99
7/18/2024 10:00 to 9:10 96.53 97.69 97.95 98.23 99.48 99.52
7/18/2024 09:00 to 8:10 97.99 95.49 92.41 90.89 91.05 90.67
7/18/2024 08:00 to 7:10 91.79 92.47 93.29 93.83 94.25 94.43
7/18/2024 07:00 to 6:10 93.89 93.09 92.03 91.31 90.95 90.69
7/18/2024 06:00 to 5:10 91.19 91.71 92.53 92.93 92.95 92.87
7/18/2024 05:00 to 4:10 93.05 92.89 92.61 92.31 90.53 87.92
7/18/2024 04:00 to 3:10 87.66 87.34 87.42 87.60 87.40 87.66
7/18/2024 03:00 to 2:10 87.60 87.70 87.66 86.90 86.22 87.02
7/18/2024 02:00 to 1:10 86.88 88.34 89.07 90.05 90.89 90.63
7/18/2024 01:00 to 0:10 91.73 90.99 92.07 92.41 90.35 90.65
7/18/2024 00:00 to 23:10 89.55 88.50 83.12 82.86 87.84 88.24
7/17/2024 23:00 to 22:10 92.97 94.43 95.07 94.91 95.87 89.15
7/17/2024 22:00 to 21:10 88.46 87.78 88.08 94.87 92.73 96.07
7/17/2024 21:00 to 20:10 94.15 86.78 85.80 86.06 87.88 88.30
7/17/2024 20:00 to 19:10 87.06 92.23 85.96 85.94 86.92 87.24
7/17/2024 19:00 to 18:10 89.93 91.95 91.79 92.19 92.31 92.87
7/17/2024 18:00 to 17:10 92.83 92.77 93.81 94.41 95.69 96.93
7/17/2024 17:00 to 16:10 97.45 97.79 96.91 96.25 92.81 93.09
7/17/2024 16:00 to 15:10 94.51 94.57 95.51 90.69 90.91 91.89
7/17/2024 15:00 to 14:10 92.53 89.57 91.23 94.85 96.63 97.47
7/17/2024 14:00 to 13:10 97.77 98.17 96.83 96.13 92.33 89.69
7/17/2024 13:00 to 12:10 88.62 89.21 88.38 89.45 89.95 87.72
7/17/2024 12:00 to 11:10 89.83 92.97 92.13 92.87 93.99 93.49
7/17/2024 11:00 to 10:10 92.79 89.83 88.22 87.28 89.11 93.09
7/17/2024 10:00 to 9:10 92.43 93.85 93.81 94.33 95.97 95.51
7/17/2024 09:00 to 8:10 93.27 91.57 91.09 93.15 93.69 94.25
7/17/2024 08:00 to 7:10 93.91 96.17 97.67 96.37 89.11 86.14
7/17/2024 07:00 to 6:10 88.77 92.83 93.67 93.43 95.63 95.21
7/17/2024 06:00 to 5:10 95.93 95.77 94.67 93.13 92.33 94.51
7/17/2024 05:00 to 4:10 95.11 95.03 92.33 91.33 90.45 91.63
7/17/2024 04:00 to 3:10 91.35 91.63 94.47 96.47 97.85 98.11
7/17/2024 03:00 to 2:10 89.59 89.63 89.39 89.39 86.96 87.58
7/17/2024 02:00 to 1:10 87.92 87.30 89.51 90.07 93.61 96.83
7/17/2024 01:00 to 0:10 97.55 96.69 92.77 93.41 94.09 92.25

 

 

 

Air Temperature [°C]     6 entries per hour
Showing data from 7/18/2024 (19:00:00 Z) to 7/17/2024 (00:00:01 Z)
Previous Next [ Day | 3-Days | 7-Days ]
First Last
Prev [ Day | 3-Days | 7-Days ] Next
First Last

Start Time:     :
End Time:     :     
Time (in GMT) :00 :50 :40 :30 :20 :10
Previous Next [ Day | 3-Days | 7-Days ]
First Last
Prev [ Day | 3-Days | 7-Days ] Next
First Last


123 => good data
MM => data is determined as missing
-- => data not received/configured
Back to Top Back to Top
7/18/2024 19:00 to 18:10 25.74 25.75 25.57 25.59 25.53 25.65
7/18/2024 18:00 to 17:10 25.54 26.04 26.10 26.04 26.07 25.90
7/18/2024 17:00 to 16:10 26.00 25.91 25.75 25.77 26.06 26.58
7/18/2024 16:00 to 15:10 26.65 26.56 26.71 27.03 26.83 26.89
7/18/2024 15:00 to 14:10 27.05 27.23 27.07 26.84 26.93 27.02
7/18/2024 14:00 to 13:10 27.00 26.96 26.71 26.92 26.52 26.36
7/18/2024 13:00 to 12:10 26.22 25.87 25.86 25.73 25.78 25.82
7/18/2024 12:00 to 11:10 26.02 26.09 26.36 25.96 25.78 25.23
7/18/2024 11:00 to 10:10 25.16 25.27 25.14 25.07 25.80 26.00
7/18/2024 10:00 to 9:10 25.58 25.58 25.71 25.81 26.05 26.05
7/18/2024 09:00 to 8:10 26.75 27.21 27.64 27.64 27.54 27.55
7/18/2024 08:00 to 7:10 27.50 27.29 27.25 27.21 27.10 27.14
7/18/2024 07:00 to 6:10 27.31 27.43 27.35 27.29 27.28 27.27
7/18/2024 06:00 to 5:10 27.11 27.09 27.19 27.14 27.04 26.94
7/18/2024 05:00 to 4:10 26.98 26.99 26.95 26.99 27.14 27.61
7/18/2024 04:00 to 3:10 27.62 27.52 27.56 27.48 27.43 27.35
7/18/2024 03:00 to 2:10 27.42 27.27 27.29 27.29 27.36 27.34
7/18/2024 02:00 to 1:10 27.03 27.11 26.97 26.92 26.97 27.04
7/18/2024 01:00 to 0:10 26.97 27.02 26.79 26.65 26.71 26.72
7/18/2024 00:00 to 23:10 26.86 26.89 27.60 27.75 27.51 27.25
7/17/2024 23:00 to 22:10 27.26 26.82 26.53 26.27 26.80 28.40
7/17/2024 22:00 to 21:10 28.73 28.75 28.68 27.65 27.33 26.88
7/17/2024 21:00 to 20:10 26.83 27.86 29.08 28.94 28.80 28.71
7/17/2024 20:00 to 19:10 28.66 27.73 29.08 29.03 29.03 28.84
7/17/2024 19:00 to 18:10 28.18 28.27 28.14 28.04 28.11 28.08
7/17/2024 18:00 to 17:10 27.80 27.38 27.17 27.01 26.63 26.52
7/17/2024 17:00 to 16:10 26.58 26.59 26.61 26.36 27.55 27.33
7/17/2024 16:00 to 15:10 27.47 27.21 26.81 28.04 27.93 27.38
7/17/2024 15:00 to 14:10 26.96 27.56 27.65 27.38 27.23 26.98
7/17/2024 14:00 to 13:10 26.73 26.54 27.08 27.08 27.61 28.58
7/17/2024 13:00 to 12:10 28.54 28.47 28.32 28.45 28.18 28.38
7/17/2024 12:00 to 11:10 28.27 28.09 27.92 27.69 27.29 27.49
7/17/2024 11:00 to 10:10 27.59 28.68 28.58 28.85 28.71 28.30
7/17/2024 10:00 to 9:10 27.20 28.08 28.07 28.08 27.58 27.09
7/17/2024 09:00 to 8:10 27.03 28.28 28.40 28.12 27.76 27.62
7/17/2024 08:00 to 7:10 27.65 27.57 27.24 27.22 28.61 28.79
7/17/2024 07:00 to 6:10 28.64 28.32 28.23 27.88 27.76 27.49
7/17/2024 06:00 to 5:10 27.73 27.49 27.78 28.03 28.13 27.75
7/17/2024 05:00 to 4:10 27.57 27.63 27.89 27.86 27.77 27.99
7/17/2024 04:00 to 3:10 28.15 27.80 27.43 27.12 26.83 26.97
7/17/2024 03:00 to 2:10 28.63 28.61 28.50 28.43 28.91 28.89
7/17/2024 02:00 to 1:10 28.81 28.86 28.74 28.60 27.90 27.81
7/17/2024 01:00 to 0:10 27.31 27.03 28.32 28.23 27.85 27.92